createdAt,value
2022-10-02T00:01:32.494Z,43.72
2022-10-02T00:04:02.449Z,43.32
2022-10-02T00:06:41.689Z,43.57
2022-10-02T00:09:15.769Z,43.63
2022-10-02T00:11:46.968Z,43.67
2022-10-02T00:14:17.276Z,43.60
2022-10-02T00:16:48.471Z,43.70
2022-10-02T00:19:18.748Z,43.63
2022-10-02T00:22:02.910Z,43.64
2022-10-02T00:24:38.525Z,43.65
2022-10-02T00:27:27.221Z,43.56
2022-10-02T00:29:57.750Z,43.54
2022-10-02T00:32:31.316Z,43.67
2022-10-02T00:35:24.334Z,43.67
2022-10-02T00:38:00.024Z,43.92
2022-10-02T00:40:43.253Z,43.87
2022-10-02T00:43:23.298Z,43.75
2022-10-02T00:46:22.952Z,43.64
2022-10-02T00:49:04.308Z,43.55
2022-10-02T00:51:52.292Z,43.47
2022-10-02T00:54:45.031Z,43.65
2022-10-02T00:57:22.366Z,43.79
2022-10-02T01:00:01.598Z,43.70
2022-10-02T01:02:50.676Z,43.51
2022-10-02T01:05:19.281Z,43.75
2022-10-02T01:07:52.221Z,43.63
2022-10-02T01:10:19.948Z,43.80
2022-10-02T01:12:47.160Z,43.74
2022-10-02T01:15:16.916Z,43.72
2022-10-02T01:17:46.633Z,43.64
2022-10-02T01:20:16.137Z,43.62
2022-10-02T01:22:54.108Z,43.85
2022-10-02T01:25:22.947Z,43.62
2022-10-02T01:27:52.515Z,43.95
2022-10-02T01:30:21.055Z,43.94
2022-10-02T01:32:50.437Z,44.00
2022-10-02T01:35:20.973Z,43.71
2022-10-02T01:37:51.103Z,43.81
2022-10-02T01:40:27.499Z,43.73
2022-10-02T01:42:58.635Z,43.82
2022-10-02T01:45:35.949Z,43.75
2022-10-02T01:48:12.558Z,43.74
2022-10-02T01:50:52.921Z,43.78
2022-10-02T01:53:28.772Z,43.75
2022-10-02T01:56:09.528Z,43.82
2022-10-02T01:58:45.077Z,43.76
2022-10-02T02:01:22.655Z,43.92
2022-10-02T02:03:59.036Z,43.88
2022-10-02T02:06:30.180Z,43.71
2022-10-02T02:09:06.572Z,43.75
2022-10-02T02:11:39.707Z,43.67
2022-10-02T02:14:12.769Z,43.78
2022-10-02T02:16:43.298Z,43.70
2022-10-02T02:19:18.773Z,43.67
2022-10-02T02:21:49.061Z,43.97
2022-10-02T02:24:23.572Z,43.99
2022-10-02T02:26:58.108Z,43.80
2022-10-02T02:29:29.547Z,43.94
2022-10-02T02:31:57.363Z,43.89
2022-10-02T02:34:31.211Z,44.03
2022-10-02T02:37:04.964Z,44.11
2022-10-02T02:39:37.141Z,43.96
2022-10-02T02:42:10.120Z,44.01
2022-10-02T02:44:41.872Z,43.90
2022-10-02T02:47:12.935Z,43.83
2022-10-02T02:49:49.446Z,43.94
2022-10-02T02:52:21.220Z,43.95
2022-10-02T02:54:53.088Z,43.94
2022-10-02T02:57:28.349Z,43.85
2022-10-02T02:59:57.942Z,43.89
2022-10-02T03:02:25.142Z,44.04
2022-10-02T03:04:52.360Z,43.98
2022-10-02T03:07:19.974Z,43.92
2022-10-02T03:09:56.797Z,44.08
2022-10-02T03:12:38.633Z,44.05
2022-10-02T03:15:21.352Z,44.38
2022-10-02T03:18:03.159Z,44.11
2022-10-02T03:20:36.703Z,44.00
2022-10-02T03:23:12.148Z,43.95
2022-10-02T03:25:44.743Z,44.08
2022-10-02T03:28:31.736Z,44.10
2022-10-02T03:31:05.549Z,44.14
2022-10-02T03:33:36.418Z,43.93
2022-10-02T03:36:04.701Z,44.25
2022-10-02T03:38:33.245Z,44.22
2022-10-02T03:41:00.400Z,44.11
2022-10-02T03:43:30.736Z,44.19
2022-10-02T03:45:57.949Z,44.18
2022-10-02T03:48:25.275Z,44.13
2022-10-02T03:50:52.536Z,44.11
2022-10-02T03:53:22.028Z,44.02
2022-10-02T03:55:55.202Z,44.09
2022-10-02T03:58:22.415Z,44.08
2022-10-02T04:00:58.743Z,44.07
2022-10-02T04:03:29.527Z,44.06
2022-10-02T04:06:00.981Z,44.19
2022-10-02T04:08:34.508Z,44.36
2022-10-02T04:11:08.435Z,44.27
2022-10-02T04:13:39.613Z,44.15
2022-10-02T04:16:14.824Z,44.38
2022-10-02T04:18:52.623Z,44.09
2022-10-02T04:21:31.272Z,44.37
2022-10-02T04:24:06.728Z,44.24
2022-10-02T04:26:37.590Z,44.36
2022-10-02T04:29:13.943Z,44.19
2022-10-02T04:31:42.569Z,44.16
2022-10-02T04:34:13.004Z,44.00
2022-10-02T04:36:47.869Z,44.14
2022-10-02T04:39:46.891Z,44.09
2022-10-02T04:42:27.591Z,44.15
2022-10-02T04:45:09.116Z,44.14
2022-10-02T04:47:56.558Z,43.91
2022-10-02T04:50:38.040Z,44.36
2022-10-02T04:53:21.536Z,44.31
2022-10-02T04:56:21.774Z,44.18
2022-10-02T04:59:01.487Z,44.46
2022-10-02T05:01:40.790Z,44.40
2022-10-02T05:04:47.236Z,44.60
2022-10-02T05:07:32.581Z,44.39
2022-10-02T05:10:10.274Z,44.25
2022-10-02T05:12:50.645Z,44.41
2022-10-02T05:15:33.529Z,45.57
2022-10-02T05:18:17.146Z,44.75
2022-10-02T05:21:07.333Z,45.40
2022-10-02T05:23:49.970Z,46.08
2022-10-02T05:26:50.351Z,45.44
2022-10-02T05:29:30.558Z,45.31
2022-10-02T05:32:16.016Z,45.41
2022-10-02T05:35:00.701Z,45.48
2022-10-02T05:37:47.453Z,45.56
2022-10-02T05:40:21.444Z,45.53
2022-10-02T05:42:57.667Z,45.27
2022-10-02T05:45:29.124Z,45.31
2022-10-02T05:48:08.218Z,45.50
2022-10-02T05:50:37.880Z,45.37
2022-10-02T05:53:14.149Z,45.36
2022-10-02T05:55:48.102Z,45.35
2022-10-02T05:58:23.155Z,46.64
2022-10-02T06:00:56.369Z,45.96
2022-10-02T06:03:31.068Z,45.39
2022-10-02T06:06:03.845Z,45.33
2022-10-02T06:08:36.811Z,45.32
2022-10-02T06:11:11.416Z,45.37
2022-10-02T06:13:45.598Z,45.33
2022-10-02T06:16:14.527Z,45.30
2022-10-02T06:18:46.748Z,45.11
2022-10-02T06:21:23.725Z,45.13
2022-10-02T06:23:56.352Z,45.11
2022-10-02T06:26:28.977Z,45.35
2022-10-02T06:29:01.335Z,45.47
2022-10-02T06:31:38.003Z,45.47
2022-10-02T06:34:10.759Z,45.48
2022-10-02T06:36:57.472Z,45.44
2022-10-02T06:39:36.819Z,45.62
2022-10-02T06:42:17.619Z,45.47
2022-10-02T06:44:53.657Z,45.45
2022-10-02T06:47:32.833Z,45.42
2022-10-02T06:50:16.561Z,45.49
2022-10-02T06:52:53.192Z,45.50
2022-10-02T06:55:40.363Z,45.15
2022-10-02T06:58:30.430Z,45.37
2022-10-02T07:01:08.015Z,45.42
2022-10-02T07:04:05.934Z,45.43
2022-10-02T07:06:45.612Z,45.32
2022-10-02T07:09:39.840Z,45.45
2022-10-02T07:12:26.375Z,45.53
2022-10-02T07:15:11.855Z,45.31
2022-10-02T07:17:50.756Z,45.66
2022-10-02T07:20:31.914Z,45.89
2022-10-02T07:23:32.896Z,46.09
2022-10-02T07:26:12.139Z,46.18
2022-10-02T07:28:46.470Z,46.11
2022-10-02T07:31:26.611Z,46.16
2022-10-02T07:34:08.235Z,46.19
2022-10-02T07:36:45.751Z,46.78
2022-10-02T07:39:26.840Z,48.32
2022-10-02T07:42:24.664Z,48.36
2022-10-02T07:45:30.601Z,48.31
2022-10-02T07:48:31.314Z,54.66
2022-10-02T07:51:22.137Z,55.04
2022-10-02T07:53:55.131Z,55.62
2022-10-02T07:56:23.513Z,51.68
2022-10-02T07:58:55.497Z,51.07
2022-10-02T08:01:26.939Z,49.95
2022-10-02T08:03:57.019Z,50.49
2022-10-02T08:06:24.171Z,49.42
2022-10-02T08:08:55.114Z,48.90
2022-10-02T08:11:27.201Z,58.06
2022-10-02T08:13:57.237Z,52.35
2022-10-02T08:16:30.667Z,51.48
2022-10-02T08:19:02.879Z,50.83
2022-10-02T08:21:35.876Z,50.37
2022-10-02T08:24:11.008Z,50.04
2022-10-02T08:26:43.479Z,50.46
2022-10-02T08:29:17.460Z,50.88
2022-10-02T08:31:46.372Z,50.13
2022-10-02T08:34:17.347Z,49.08
2022-10-02T08:37:02.443Z,48.57
2022-10-02T08:39:48.959Z,48.53
2022-10-02T08:42:55.743Z,50.10
2022-10-02T08:45:58.743Z,51.77
2022-10-02T08:49:10.285Z,51.26
2022-10-02T08:52:11.166Z,49.60
2022-10-02T08:55:00.420Z,48.89
2022-10-02T08:57:55.587Z,50.52
2022-10-02T09:00:25.229Z,51.23
2022-10-02T09:03:29.066Z,51.05
2022-10-02T09:06:28.668Z,50.73
2022-10-02T09:09:24.106Z,53.09
2022-10-02T09:12:33.259Z,62.64
2022-10-02T09:15:14.170Z,59.62
2022-10-02T09:18:10.144Z,57.24
2022-10-02T09:20:58.654Z,57.35
2022-10-02T09:23:56.118Z,54.17
2022-10-02T09:26:32.449Z,51.12
2022-10-02T09:29:41.677Z,50.39
2022-10-02T09:32:43.908Z,49.84
2022-10-02T09:35:40.105Z,49.66
2022-10-02T09:38:39.281Z,49.11
2022-10-02T09:41:56.982Z,48.77
2022-10-02T09:44:51.438Z,48.14
2022-10-02T09:48:04.064Z,48.88
2022-10-02T09:51:01.483Z,48.08
2022-10-02T09:53:59.588Z,48.60
2022-10-02T09:56:55.268Z,49.83
2022-10-02T10:00:09.774Z,49.56
2022-10-02T10:03:05.060Z,49.71
2022-10-02T10:06:06.434Z,49.24
2022-10-02T10:08:51.122Z,49.28
2022-10-02T10:11:45.736Z,49.39
2022-10-02T10:14:38.407Z,49.18
2022-10-02T10:17:29.103Z,48.94
2022-10-02T10:20:30.856Z,48.86
2022-10-02T10:23:20.728Z,48.87
2022-10-02T10:26:11.419Z,48.77
2022-10-02T10:29:16.369Z,48.67
2022-10-02T10:32:19.208Z,48.53
2022-10-02T10:35:09.917Z,48.36
2022-10-02T10:37:54.362Z,48.58
2022-10-02T10:40:27.284Z,48.65
2022-10-02T10:43:26.348Z,48.43
2022-10-02T10:46:27.916Z,48.65
2022-10-02T10:49:37.276Z,48.44
2022-10-02T10:52:17.052Z,48.48
2022-10-02T10:55:03.896Z,48.40
2022-10-02T10:57:47.157Z,48.85
2022-10-02T11:00:25.293Z,48.39
2022-10-02T11:03:23.728Z,48.38
2022-10-02T11:06:20.625Z,48.38
2022-10-02T11:09:23.294Z,48.37
2022-10-02T11:12:09.678Z,48.49
2022-10-02T11:14:49.762Z,48.23
2022-10-02T11:17:43.657Z,48.41
2022-10-02T11:20:26.821Z,48.09
2022-10-02T11:23:34.788Z,48.28
2022-10-02T11:26:16.551Z,48.20
2022-10-02T11:29:03.439Z,48.16
2022-10-02T11:31:53.386Z,48.11
2022-10-02T11:34:45.536Z,48.05
2022-10-02T11:37:30.595Z,47.90
2022-10-02T11:40:17.649Z,47.91
2022-10-02T11:43:00.461Z,47.84
2022-10-02T11:45:46.890Z,47.70
2022-10-02T11:48:38.528Z,47.81
2022-10-02T11:51:40.328Z,47.77
2022-10-02T11:54:37.814Z,47.46
2022-10-02T11:57:21.649Z,47.54
2022-10-02T12:00:03.447Z,47.55
2022-10-02T12:02:35.638Z,47.73
2022-10-02T12:05:19.129Z,47.72
2022-10-02T12:07:55.764Z,47.43
2022-10-02T12:10:40.140Z,47.45
2022-10-02T12:13:42.498Z,47.53
2022-10-02T12:16:20.657Z,47.57
2022-10-02T12:19:01.549Z,47.66
2022-10-02T12:21:45.279Z,47.55
2022-10-02T12:24:21.600Z,47.52
2022-10-02T12:26:58.395Z,47.76
2022-10-02T12:29:37.297Z,47.69
2022-10-02T12:32:14.687Z,47.99
2022-10-02T12:34:52.995Z,47.77
2022-10-02T12:37:28.372Z,48.78
2022-10-02T12:40:06.122Z,48.44
2022-10-02T12:43:02.302Z,48.48
2022-10-02T12:46:00.006Z,48.56
2022-10-02T12:48:39.367Z,48.46
2022-10-02T12:51:36.736Z,48.35
2022-10-02T12:54:46.797Z,48.23
2022-10-02T12:57:43.144Z,48.09
2022-10-02T13:00:13.707Z,47.89
2022-10-02T13:03:43.685Z,47.58
2022-10-02T13:06:40.734Z,47.68
2022-10-02T13:09:19.716Z,47.87
2022-10-02T13:12:01.218Z,47.52
2022-10-02T13:14:44.945Z,47.72
2022-10-02T13:17:26.305Z,47.66
2022-10-02T13:20:03.568Z,47.80
2022-10-02T13:22:42.553Z,47.50
2022-10-02T13:25:29.812Z,47.35
2022-10-02T13:28:09.736Z,47.52
2022-10-02T13:30:46.278Z,47.57
2022-10-02T13:33:26.031Z,47.52
2022-10-02T13:36:00.848Z,47.51
2022-10-02T13:38:49.207Z,47.35
2022-10-02T13:41:30.475Z,47.27
2022-10-02T13:44:10.794Z,47.38
2022-10-02T13:47:01.805Z,47.46
2022-10-02T13:49:41.795Z,47.50
2022-10-02T13:52:18.239Z,47.46
2022-10-02T13:54:58.828Z,47.52
2022-10-02T13:57:46.794Z,47.40
2022-10-02T14:00:23.703Z,47.46
2022-10-02T14:03:04.091Z,47.50
2022-10-02T14:05:41.718Z,47.24
2022-10-02T14:08:30.564Z,47.18
2022-10-02T14:11:08.653Z,47.09
2022-10-02T14:13:51.747Z,46.89
2022-10-02T14:16:35.589Z,46.55
2022-10-02T14:19:34.424Z,46.62
2022-10-02T14:22:19.184Z,46.28
2022-10-02T14:25:07.896Z,46.28
2022-10-02T14:28:08.155Z,46.00
2022-10-02T14:30:51.117Z,46.09
2022-10-02T14:33:29.137Z,46.17
2022-10-02T14:36:02.839Z,45.93
2022-10-02T14:38:50.186Z,46.00
2022-10-02T14:41:39.587Z,45.91
2022-10-02T14:44:24.421Z,45.87
2022-10-02T14:47:10.958Z,45.82
2022-10-02T14:50:10.515Z,46.08
2022-10-02T14:53:04.374Z,46.03
2022-10-02T14:55:51.960Z,46.11
2022-10-02T14:58:29.748Z,45.93
2022-10-02T15:01:21.303Z,45.97
2022-10-02T15:04:29.916Z,46.15
2022-10-02T15:07:02.336Z,45.96
2022-10-02T15:09:36.922Z,45.68
2022-10-02T15:12:15.284Z,45.81
2022-10-02T15:14:54.932Z,45.75
2022-10-02T15:17:34.859Z,45.78
2022-10-02T15:20:19.018Z,45.89
2022-10-02T15:22:54.356Z,45.73
2022-10-02T15:25:38.664Z,46.33
2022-10-02T15:28:35.305Z,45.81
2022-10-02T15:31:05.866Z,45.95
2022-10-02T15:33:42.301Z,45.96
2022-10-02T15:36:26.706Z,46.11
2022-10-02T15:39:13.913Z,45.98
2022-10-02T15:41:47.265Z,45.82
2022-10-02T15:44:32.754Z,45.74
2022-10-02T15:47:08.233Z,45.79
2022-10-02T15:49:54.392Z,45.79
2022-10-02T15:52:32.345Z,45.70
2022-10-02T15:55:17.259Z,45.53
2022-10-02T15:57:58.957Z,45.48
2022-10-02T16:00:27.227Z,45.55
2022-10-02T16:03:08.921Z,45.38
2022-10-02T16:06:06.835Z,45.79
2022-10-02T16:09:10.336Z,45.88
2022-10-02T16:11:56.256Z,45.97
2022-10-02T16:14:37.757Z,45.96
2022-10-02T16:17:21.672Z,45.99
2022-10-02T16:20:08.013Z,46.00
2022-10-02T16:22:56.121Z,45.61
2022-10-02T16:25:47.479Z,45.36
2022-10-02T16:28:28.277Z,45.46
2022-10-02T16:31:14.112Z,45.22
2022-10-02T16:33:54.876Z,45.25
2022-10-02T16:36:27.396Z,45.04
2022-10-02T16:39:08.804Z,45.43
2022-10-02T16:41:42.005Z,45.15
2022-10-02T16:44:25.805Z,45.20
2022-10-02T16:46:58.619Z,44.82
2022-10-02T16:49:33.414Z,44.87
2022-10-02T16:52:09.812Z,45.00
2022-10-02T16:54:44.827Z,45.31
2022-10-02T16:57:22.371Z,44.99
2022-10-02T16:59:59.907Z,45.17
2022-10-02T17:02:38.527Z,45.21
2022-10-02T17:05:16.209Z,45.09
2022-10-02T17:07:55.904Z,45.37
2022-10-02T17:10:36.635Z,45.31
2022-10-02T17:13:16.652Z,45.64
2022-10-02T17:15:49.546Z,45.23
2022-10-02T17:18:26.465Z,45.47
2022-10-02T17:20:56.397Z,45.34
2022-10-02T17:23:28.197Z,45.13
2022-10-02T17:26:04.505Z,45.07
2022-10-02T17:28:39.898Z,45.25
2022-10-02T17:31:40.369Z,44.99
2022-10-02T17:34:20.376Z,45.05
2022-10-02T17:36:53.689Z,45.58
2022-10-02T17:39:34.552Z,45.39
2022-10-02T17:42:13.122Z,45.41
2022-10-02T17:44:54.024Z,45.67
2022-10-02T17:47:56.454Z,45.53
2022-10-02T17:50:37.738Z,45.63
2022-10-02T17:53:18.100Z,45.38
2022-10-02T17:56:16.512Z,45.69
2022-10-02T17:58:56.239Z,45.52
2022-10-02T18:01:29.970Z,45.78
2022-10-02T18:04:10.942Z,45.55
2022-10-02T18:06:49.008Z,45.76
2022-10-02T18:09:28.513Z,45.58
2022-10-02T18:12:11.067Z,45.54
2022-10-02T18:15:11.741Z,45.20
2022-10-02T18:17:55.613Z,44.85
2022-10-02T18:20:32.468Z,45.12
2022-10-02T18:23:15.272Z,44.99
2022-10-02T18:26:04.468Z,45.01
2022-10-02T18:29:12.211Z,44.89
2022-10-02T18:31:56.910Z,44.87
2022-10-02T18:34:45.772Z,45.01
2022-10-02T18:37:26.957Z,45.14
2022-10-02T18:40:07.415Z,45.28
2022-10-02T18:42:47.937Z,45.13
2022-10-02T18:45:33.747Z,45.60
2022-10-02T18:48:19.681Z,45.63
2022-10-02T18:51:02.348Z,45.53
2022-10-02T18:53:43.899Z,45.54
2022-10-02T18:56:11.756Z,45.50
2022-10-02T18:58:50.825Z,45.36
2022-10-02T19:01:40.605Z,45.62
2022-10-02T19:04:28.616Z,45.55
2022-10-02T19:07:04.056Z,45.32
2022-10-02T19:09:31.805Z,44.78
2022-10-02T19:12:00.634Z,44.91
2022-10-02T19:14:34.817Z,44.71
2022-10-02T19:17:05.027Z,44.56
2022-10-02T19:19:33.546Z,44.81
2022-10-02T19:22:08.714Z,44.88
2022-10-02T19:24:39.565Z,44.88
2022-10-02T19:27:14.526Z,44.84
2022-10-02T19:29:46.291Z,44.90
2022-10-02T19:32:20.605Z,45.28
2022-10-02T19:34:57.176Z,45.17
2022-10-02T19:37:24.840Z,45.12
2022-10-02T19:39:55.960Z,45.36
2022-10-02T19:42:28.298Z,45.37
2022-10-02T19:44:59.401Z,45.50
2022-10-02T19:47:37.424Z,45.39
2022-10-02T19:50:17.307Z,45.21
2022-10-02T19:52:52.113Z,45.21
2022-10-02T19:55:22.370Z,45.36
2022-10-02T19:57:51.062Z,45.13
2022-10-02T20:00:20.004Z,44.74
2022-10-02T20:02:48.880Z,44.60
2022-10-02T20:05:21.585Z,44.90
2022-10-02T20:07:52.049Z,44.70
2022-10-02T20:10:25.109Z,44.69
2022-10-02T20:12:57.165Z,44.48
2022-10-02T20:15:29.656Z,44.45
2022-10-02T20:17:56.759Z,44.51
2022-10-02T20:20:25.261Z,44.96
2022-10-02T20:22:55.903Z,44.74
2022-10-02T20:25:27.015Z,44.99
2022-10-02T20:27:58.354Z,44.99
2022-10-02T20:30:32.425Z,45.12
2022-10-02T20:33:02.443Z,45.32
2022-10-02T20:35:36.078Z,45.10
2022-10-02T20:38:07.056Z,44.96
2022-10-02T20:40:35.816Z,45.36
2022-10-02T20:43:05.920Z,45.48
2022-10-02T20:45:39.578Z,45.24
2022-10-02T20:49:06.893Z,45.30
2022-10-02T20:51:52.350Z,44.89
2022-10-02T20:54:50.333Z,44.85
2022-10-02T20:58:01.221Z,44.45
2022-10-02T21:00:42.854Z,44.24
2022-10-02T21:03:30.793Z,44.24
2022-10-02T21:06:20.524Z,44.48
2022-10-02T21:09:17.689Z,44.51
2022-10-02T21:12:16.015Z,44.42
2022-10-02T21:15:04.602Z,44.68
2022-10-02T21:17:51.404Z,44.45
2022-10-02T21:20:51.606Z,44.60
2022-10-02T21:24:14.797Z,44.62
2022-10-02T21:27:11.477Z,44.81
2022-10-02T21:29:56.672Z,44.70
2022-10-02T21:32:41.003Z,44.98
2022-10-02T21:35:13.556Z,45.00
2022-10-02T21:37:55.109Z,44.98
2022-10-02T21:40:58.268Z,45.03
2022-10-02T21:44:00.690Z,45.20
2022-10-02T21:47:00.015Z,45.16
2022-10-02T21:50:11.398Z,45.37
2022-10-02T21:53:24.320Z,45.18
2022-10-02T21:56:27.580Z,45.34
2022-10-02T21:59:22.456Z,45.23
2022-10-02T22:02:25.530Z,45.17
2022-10-02T22:05:28.606Z,44.95
2022-10-02T22:08:05.582Z,44.89
2022-10-02T22:10:42.436Z,44.92
2022-10-02T22:13:20.605Z,45.03
2022-10-02T22:15:55.629Z,45.02
2022-10-02T22:18:29.743Z,44.88
2022-10-02T22:21:03.430Z,44.79
2022-10-02T22:23:51.528Z,45.05
2022-10-02T22:26:38.778Z,44.96
2022-10-02T22:29:11.848Z,44.96
2022-10-02T22:31:59.800Z,44.87
2022-10-02T22:34:45.343Z,45.31
2022-10-02T22:37:29.344Z,45.00
2022-10-02T22:40:02.463Z,44.87
2022-10-02T22:42:38.589Z,45.03
2022-10-02T22:45:15.056Z,45.25
2022-10-02T22:47:51.598Z,45.15
2022-10-02T22:50:28.754Z,44.93
2022-10-02T22:53:05.854Z,45.01
2022-10-02T22:55:38.575Z,44.89
2022-10-02T22:58:11.432Z,45.08
2022-10-02T23:00:55.317Z,44.91
2022-10-02T23:03:28.551Z,44.87
2022-10-02T23:06:02.227Z,45.02
2022-10-02T23:08:34.271Z,44.90
2022-10-02T23:11:10.548Z,45.10
2022-10-02T23:13:45.161Z,45.24
2022-10-02T23:16:20.200Z,44.85
2022-10-02T23:18:54.387Z,45.10
2022-10-02T23:21:30.251Z,44.91
2022-10-02T23:24:05.637Z,44.92
2022-10-02T23:26:37.236Z,45.12
2022-10-02T23:29:18.607Z,45.00
2022-10-02T23:31:53.999Z,44.99
2022-10-02T23:34:33.021Z,45.11
2022-10-02T23:37:10.971Z,44.92
2022-10-02T23:39:45.973Z,44.94
2022-10-02T23:42:19.221Z,44.85
2022-10-02T23:44:51.718Z,44.72
2022-10-02T23:47:27.036Z,44.94
2022-10-02T23:49:55.579Z,45.08
2022-10-02T23:53:02.350Z,44.72
2022-10-02T23:55:52.407Z,44.83
2022-10-02T23:58:39.337Z,44.75
